sensor_id;sensor_type;location;lat;lon;timestamp;temperature;humidity
22974;DHT22;11653;50.848;4.584;2023-04-24T00:02:08;10.70;99.90
22974;DHT22;11653;50.848;4.584;2023-04-24T00:04:37;10.70;99.90
22974;DHT22;11653;50.848;4.584;2023-04-24T00:07:06;10.80;99.90
22974;DHT22;11653;50.848;4.584;2023-04-24T00:09:32;10.70;99.90
22974;DHT22;11653;50.848;4.584;2023-04-24T00:11:58;10.70;99.90
22974;DHT22;11653;50.848;4.584;2023-04-24T00:14:24;10.80;99.90
22974;DHT22;11653;50.848;4.584;2023-04-24T00:16:50;10.70;99.90
22974;DHT22;11653;50.848;4.584;2023-04-24T00:19:15;10.60;99.90
22974;DHT22;11653;50.848;4.584;2023-04-24T00:21:41;10.50;99.90
22974;DHT22;11653;50.848;4.584;2023-04-24T00:24:07;10.50;99.90
22974;DHT22;11653;50.848;4.584;2023-04-24T00:26:34;10.50;99.90
22974;DHT22;11653;50.848;4.584;2023-04-24T00:29:00;10.50;99.90
22974;DHT22;11653;50.848;4.584;2023-04-24T00:31:26;10.50;99.90
22974;DHT22;11653;50.848;4.584;2023-04-24T00:33:51;10.40;99.90
22974;DHT22;11653;50.848;4.584;2023-04-24T00:36:17;10.40;99.90
22974;DHT22;11653;50.848;4.584;2023-04-24T00:38:44;10.40;99.90
22974;DHT22;11653;50.848;4.584;2023-04-24T00:41:11;10.40;99.90
22974;DHT22;11653;50.848;4.584;2023-04-24T00:43:36;10.40;99.90
22974;DHT22;11653;50.848;4.584;2023-04-24T00:46:02;10.30;99.90
22974;DHT22;11653;50.848;4.584;2023-04-24T00:48:29;10.40;99.90
22974;DHT22;11653;50.848;4.584;2023-04-24T00:50:56;10.40;99.90
22974;DHT22;11653;50.848;4.584;2023-04-24T00:53:22;10.40;99.90
22974;DHT22;11653;50.848;4.584;2023-04-24T00:55:48;10.40;99.90
22974;DHT22;11653;50.848;4.584;2023-04-24T00:58:14;10.40;99.90
22974;DHT22;11653;50.848;4.584;2023-04-24T01:00:40;10.40;99.90
22974;DHT22;11653;50.848;4.584;2023-04-24T01:03:06;10.40;99.90
22974;DHT22;11653;50.848;4.584;2023-04-24T01:05:33;10.40;99.90
22974;DHT22;11653;50.848;4.584;2023-04-24T01:07:59;10.40;99.90
22974;DHT22;11653;50.848;4.584;2023-04-24T01:10:27;10.40;99.90
22974;DHT22;11653;50.848;4.584;2023-04-24T01:12:55;10.40;99.90
22974;DHT22;11653;50.848;4.584;2023-04-24T01:15:20;10.50;99.90
22974;DHT22;11653;50.848;4.584;2023-04-24T01:17:46;10.50;99.90
22974;DHT22;11653;50.848;4.584;2023-04-24T01:20:12;10.60;99.90
22974;DHT22;11653;50.848;4.584;2023-04-24T01:22:38;10.60;99.90
22974;DHT22;11653;50.848;4.584;2023-04-24T01:25:04;10.60;99.90
22974;DHT22;11653;50.848;4.584;2023-04-24T01:27:31;10.60;99.90
22974;DHT22;11653;50.848;4.584;2023-04-24T01:29:57;10.50;99.90
22974;DHT22;11653;50.848;4.584;2023-04-24T01:32:24;10.40;99.90
22974;DHT22;11653;50.848;4.584;2023-04-24T01:34:50;10.40;99.90
22974;DHT22;11653;50.848;4.584;2023-04-24T01:37:16;10.40;99.90
22974;DHT22;11653;50.848;4.584;2023-04-24T01:39:43;10.40;99.90
22974;DHT22;11653;50.848;4.584;2023-04-24T01:42:12;10.40;99.90
22974;DHT22;11653;50.848;4.584;2023-04-24T01:44:41;10.50;99.90
22974;DHT22;11653;50.848;4.584;2023-04-24T01:47:07;10.40;99.90
22974;DHT22;11653;50.848;4.584;2023-04-24T01:49:33;10.40;99.90
22974;DHT22;11653;50.848;4.584;2023-04-24T01:51:59;10.30;99.90
22974;DHT22;11653;50.848;4.584;2023-04-24T01:54:24;10.30;99.90
22974;DHT22;11653;50.848;4.584;2023-04-24T01:56:50;10.30;99.90
22974;DHT22;11653;50.848;4.584;2023-04-24T01:59:17;10.20;99.90
22974;DHT22;11653;50.848;4.584;2023-04-24T02:01:43;10.20;99.90
22974;DHT22;11653;50.848;4.584;2023-04-24T02:04:09;10.10;99.90
22974;DHT22;11653;50.848;4.584;2023-04-24T02:06:35;10.10;99.90
22974;DHT22;11653;50.848;4.584;2023-04-24T02:09:01;10.10;99.90
22974;DHT22;11653;50.848;4.584;2023-04-24T02:11:27;10.00;99.90
22974;DHT22;11653;50.848;4.584;2023-04-24T02:13:53;10.00;99.90
22974;DHT22;11653;50.848;4.584;2023-04-24T02:16:19;10.00;99.90
22974;DHT22;11653;50.848;4.584;2023-04-24T02:18:44;10.00;99.90
22974;DHT22;11653;50.848;4.584;2023-04-24T02:21:10;10.10;99.90
22974;DHT22;11653;50.848;4.584;2023-04-24T02:23:36;10.10;99.90
22974;DHT22;11653;50.848;4.584;2023-04-24T02:26:02;10.00;99.90
22974;DHT22;11653;50.848;4.584;2023-04-24T02:28:27;9.90;99.90
22974;DHT22;11653;50.848;4.584;2023-04-24T02:30:53;9.90;99.90
22974;DHT22;11653;50.848;4.584;2023-04-24T02:33:19;9.90;99.90
22974;DHT22;11653;50.848;4.584;2023-04-24T02:35:45;9.80;99.90
22974;DHT22;11653;50.848;4.584;2023-04-24T02:38:10;9.80;99.90
22974;DHT22;11653;50.848;4.584;2023-04-24T02:40:36;9.80;99.90
22974;DHT22;11653;50.848;4.584;2023-04-24T02:43:02;9.80;99.90
22974;DHT22;11653;50.848;4.584;2023-04-24T02:45:27;9.70;99.90
22974;DHT22;11653;50.848;4.584;2023-04-24T02:47:53;9.70;99.90
22974;DHT22;11653;50.848;4.584;2023-04-24T02:50:19;9.80;99.90
22974;DHT22;11653;50.848;4.584;2023-04-24T02:52:44;9.80;99.90
22974;DHT22;11653;50.848;4.584;2023-04-24T02:55:10;9.80;99.90
22974;DHT22;11653;50.848;4.584;2023-04-24T02:57:36;9.70;99.90
22974;DHT22;11653;50.848;4.584;2023-04-24T03:00:03;9.60;99.90
22974;DHT22;11653;50.848;4.584;2023-04-24T03:02:31;9.70;99.90
22974;DHT22;11653;50.848;4.584;2023-04-24T03:04:57;9.70;99.90
22974;DHT22;11653;50.848;4.584;2023-04-24T03:07:22;9.70;99.90
22974;DHT22;11653;50.848;4.584;2023-04-24T03:09:49;9.70;99.90
22974;DHT22;11653;50.848;4.584;2023-04-24T03:12:15;9.80;99.90
22974;DHT22;11653;50.848;4.584;2023-04-24T03:14:43;9.80;99.90
22974;DHT22;11653;50.848;4.584;2023-04-24T03:17:08;9.70;99.90
22974;DHT22;11653;50.848;4.584;2023-04-24T03:19:34;9.80;99.90
22974;DHT22;11653;50.848;4.584;2023-04-24T03:22:02;9.70;99.90
22974;DHT22;11653;50.848;4.584;2023-04-24T03:24:28;9.80;99.90
22974;DHT22;11653;50.848;4.584;2023-04-24T03:26:53;9.80;99.90
22974;DHT22;11653;50.848;4.584;2023-04-24T03:29:19;9.90;99.90
22974;DHT22;11653;50.848;4.584;2023-04-24T03:31:45;9.80;99.90
22974;DHT22;11653;50.848;4.584;2023-04-24T03:34:10;9.90;99.90
22974;DHT22;11653;50.848;4.584;2023-04-24T03:36:36;9.80;99.90
22974;DHT22;11653;50.848;4.584;2023-04-24T03:39:02;9.80;99.90
22974;DHT22;11653;50.848;4.584;2023-04-24T03:41:27;9.80;99.90
22974;DHT22;11653;50.848;4.584;2023-04-24T03:43:53;9.80;99.90
22974;DHT22;11653;50.848;4.584;2023-04-24T03:46:19;9.80;99.90
22974;DHT22;11653;50.848;4.584;2023-04-24T03:48:44;9.80;99.90
22974;DHT22;11653;50.848;4.584;2023-04-24T03:51:10;9.70;99.90
22974;DHT22;11653;50.848;4.584;2023-04-24T03:53:36;9.60;99.90
22974;DHT22;11653;50.848;4.584;2023-04-24T03:56:01;9.50;99.90
22974;DHT22;11653;50.848;4.584;2023-04-24T03:58:27;9.50;99.90
22974;DHT22;11653;50.848;4.584;2023-04-24T04:00:53;9.50;99.90
22974;DHT22;11653;50.848;4.584;2023-04-24T04:03:19;9.50;99.90
22974;DHT22;11653;50.848;4.584;2023-04-24T04:05:44;9.50;99.90
22974;DHT22;11653;50.848;4.584;2023-04-24T04:08:10;9.50;99.90
22974;DHT22;11653;50.848;4.584;2023-04-24T04:10:36;9.40;99.90
22974;DHT22;11653;50.848;4.584;2023-04-24T04:13:01;9.40;99.90
22974;DHT22;11653;50.848;4.584;2023-04-24T04:15:27;9.40;99.90
22974;DHT22;11653;50.848;4.584;2023-04-24T04:17:53;9.40;99.90
22974;DHT22;11653;50.848;4.584;2023-04-24T04:20:18;9.50;99.90
22974;DHT22;11653;50.848;4.584;2023-04-24T04:22:44;9.50;99.90
22974;DHT22;11653;50.848;4.584;2023-04-24T04:25:10;9.50;99.90
22974;DHT22;11653;50.848;4.584;2023-04-24T04:27:36;9.50;99.90
22974;DHT22;11653;50.848;4.584;2023-04-24T04:30:03;9.50;99.90
22974;DHT22;11653;50.848;4.584;2023-04-24T04:32:34;9.60;99.90
22974;DHT22;11653;50.848;4.584;2023-04-24T04:35:00;9.60;99.90
22974;DHT22;11653;50.848;4.584;2023-04-24T04:37:30;9.60;99.90
22974;DHT22;11653;50.848;4.584;2023-04-24T04:39:57;9.60;99.90
22974;DHT22;11653;50.848;4.584;2023-04-24T04:42:24;9.70;99.90
22974;DHT22;11653;50.848;4.584;2023-04-24T04:44:50;9.70;99.90
22974;DHT22;11653;50.848;4.584;2023-04-24T04:47:16;9.70;99.90
22974;DHT22;11653;50.848;4.584;2023-04-24T04:49:43;9.70;99.90
22974;DHT22;11653;50.848;4.584;2023-04-24T04:52:09;9.80;99.90
22974;DHT22;11653;50.848;4.584;2023-04-24T04:54:35;10.00;99.90
22974;DHT22;11653;50.848;4.584;2023-04-24T04:57:01;9.90;99.90
22974;DHT22;11653;50.848;4.584;2023-04-24T04:59:27;9.90;99.90
22974;DHT22;11653;50.848;4.584;2023-04-24T05:01:53;9.80;99.90
22974;DHT22;11653;50.848;4.584;2023-04-24T05:04:18;9.80;99.90
22974;DHT22;11653;50.848;4.584;2023-04-24T05:06:44;9.80;99.90
22974;DHT22;11653;50.848;4.584;2023-04-24T05:09:10;9.80;99.90
22974;DHT22;11653;50.848;4.584;2023-04-24T05:11:35;9.80;99.90
22974;DHT22;11653;50.848;4.584;2023-04-24T05:14:01;9.80;99.90
22974;DHT22;11653;50.848;4.584;2023-04-24T05:16:27;9.70;99.90
22974;DHT22;11653;50.848;4.584;2023-04-24T05:18:52;9.60;99.90
22974;DHT22;11653;50.848;4.584;2023-04-24T05:21:18;9.60;99.90
22974;DHT22;11653;50.848;4.584;2023-04-24T05:23:44;9.50;99.90
22974;DHT22;11653;50.848;4.584;2023-04-24T05:26:09;9.50;99.90
22974;DHT22;11653;50.848;4.584;2023-04-24T05:28:35;9.50;99.90
22974;DHT22;11653;50.848;4.584;2023-04-24T05:31:02;9.60;99.90
22974;DHT22;11653;50.848;4.584;2023-04-24T05:33:28;9.60;99.90
22974;DHT22;11653;50.848;4.584;2023-04-24T05:35:54;9.60;99.90
22974;DHT22;11653;50.848;4.584;2023-04-24T05:38:20;9.50;99.90
22974;DHT22;11653;50.848;4.584;2023-04-24T05:40:46;9.40;99.90
22974;DHT22;11653;50.848;4.584;2023-04-24T05:43:12;9.40;99.90
22974;DHT22;11653;50.848;4.584;2023-04-24T05:45:38;9.40;99.90
22974;DHT22;11653;50.848;4.584;2023-04-24T05:48:04;9.40;99.90
22974;DHT22;11653;50.848;4.584;2023-04-24T05:50:31;9.40;99.90
22974;DHT22;11653;50.848;4.584;2023-04-24T05:52:56;9.40;99.90
22974;DHT22;11653;50.848;4.584;2023-04-24T05:55:27;9.40;99.90
22974;DHT22;11653;50.848;4.584;2023-04-24T05:57:53;9.40;99.90
22974;DHT22;11653;50.848;4.584;2023-04-24T06:00:19;9.40;99.90
22974;DHT22;11653;50.848;4.584;2023-04-24T06:02:46;9.40;99.90
22974;DHT22;11653;50.848;4.584;2023-04-24T06:05:12;9.40;99.90
22974;DHT22;11653;50.848;4.584;2023-04-24T06:07:38;9.50;99.90
22974;DHT22;11653;50.848;4.584;2023-04-24T06:10:03;9.50;99.90
22974;DHT22;11653;50.848;4.584;2023-04-24T06:12:29;9.60;99.90
22974;DHT22;11653;50.848;4.584;2023-04-24T06:14:55;9.50;99.90
22974;DHT22;11653;50.848;4.584;2023-04-24T06:17:21;9.50;99.90
22974;DHT22;11653;50.848;4.584;2023-04-24T06:19:47;9.40;99.90
22974;DHT22;11653;50.848;4.584;2023-04-24T06:22:13;9.30;99.90
22974;DHT22;11653;50.848;4.584;2023-04-24T06:24:39;9.30;99.90
22974;DHT22;11653;50.848;4.584;2023-04-24T06:27:05;9.20;99.90
22974;DHT22;11653;50.848;4.584;2023-04-24T06:29:32;9.10;99.90
22974;DHT22;11653;50.848;4.584;2023-04-24T06:31:58;9.20;99.90
22974;DHT22;11653;50.848;4.584;2023-04-24T06:34:24;9.20;99.90
22974;DHT22;11653;50.848;4.584;2023-04-24T06:36:50;9.30;99.90
22974;DHT22;11653;50.848;4.584;2023-04-24T06:39:16;9.30;99.90
22974;DHT22;11653;50.848;4.584;2023-04-24T06:41:41;9.30;99.90
22974;DHT22;11653;50.848;4.584;2023-04-24T06:44:07;9.40;99.90
22974;DHT22;11653;50.848;4.584;2023-04-24T06:46:33;9.40;99.90
22974;DHT22;11653;50.848;4.584;2023-04-24T06:48:58;9.50;99.90
22974;DHT22;11653;50.848;4.584;2023-04-24T06:51:25;9.40;99.90
22974;DHT22;11653;50.848;4.584;2023-04-24T06:53:54;9.30;99.90
22974;DHT22;11653;50.848;4.584;2023-04-24T06:56:20;9.30;99.90
22974;DHT22;11653;50.848;4.584;2023-04-24T06:58:47;9.30;99.90
22974;DHT22;11653;50.848;4.584;2023-04-24T07:01:13;9.30;99.90
22974;DHT22;11653;50.848;4.584;2023-04-24T07:03:39;9.40;99.90
22974;DHT22;11653;50.848;4.584;2023-04-24T07:06:05;9.50;99.90
22974;DHT22;11653;50.848;4.584;2023-04-24T07:08:31;9.50;99.90
22974;DHT22;11653;50.848;4.584;2023-04-24T07:10:58;9.60;99.90
22974;DHT22;11653;50.848;4.584;2023-04-24T07:13:25;9.70;99.90
22974;DHT22;11653;50.848;4.584;2023-04-24T07:15:51;9.70;99.90
22974;DHT22;11653;50.848;4.584;2023-04-24T07:18:19;9.80;99.90
22974;DHT22;11653;50.848;4.584;2023-04-24T07:20:45;9.90;99.90
22974;DHT22;11653;50.848;4.584;2023-04-24T07:23:11;9.80;99.90
22974;DHT22;11653;50.848;4.584;2023-04-24T07:25:36;9.90;99.90
22974;DHT22;11653;50.848;4.584;2023-04-24T07:28:03;9.90;99.90
22974;DHT22;11653;50.848;4.584;2023-04-24T07:30:30;9.90;99.90
22974;DHT22;11653;50.848;4.584;2023-04-24T07:32:56;9.80;99.90
22974;DHT22;11653;50.848;4.584;2023-04-24T07:35:22;9.80;99.90
22974;DHT22;11653;50.848;4.584;2023-04-24T07:37:48;9.90;99.90
22974;DHT22;11653;50.848;4.584;2023-04-24T07:40:13;9.80;99.90
22974;DHT22;11653;50.848;4.584;2023-04-24T07:42:39;10.00;99.90
22974;DHT22;11653;50.848;4.584;2023-04-24T07:45:05;10.10;99.90
22974;DHT22;11653;50.848;4.584;2023-04-24T07:47:32;10.10;99.90
22974;DHT22;11653;50.848;4.584;2023-04-24T07:49:58;10.10;99.90
22974;DHT22;11653;50.848;4.584;2023-04-24T07:52:24;10.10;99.90
22974;DHT22;11653;50.848;4.584;2023-04-24T07:54:50;10.00;99.90
22974;DHT22;11653;50.848;4.584;2023-04-24T07:57:18;10.00;99.90
22974;DHT22;11653;50.848;4.584;2023-04-24T07:59:44;10.10;99.90
22974;DHT22;11653;50.848;4.584;2023-04-24T08:02:09;10.20;99.90
22974;DHT22;11653;50.848;4.584;2023-04-24T08:04:35;10.60;99.90
22974;DHT22;11653;50.848;4.584;2023-04-24T08:07:00;11.10;99.90
22974;DHT22;11653;50.848;4.584;2023-04-24T08:09:26;11.60;99.90
22974;DHT22;11653;50.848;4.584;2023-04-24T08:11:52;12.10;99.90
22974;DHT22;11653;50.848;4.584;2023-04-24T08:14:18;12.10;99.90
22974;DHT22;11653;50.848;4.584;2023-04-24T08:16:44;11.90;99.90
22974;DHT22;11653;50.848;4.584;2023-04-24T08:19:10;11.90;99.90
22974;DHT22;11653;50.848;4.584;2023-04-24T08:21:36;12.10;99.90
22974;DHT22;11653;50.848;4.584;2023-04-24T08:24:01;12.30;99.90
22974;DHT22;11653;50.848;4.584;2023-04-24T08:26:30;12.40;99.90
22974;DHT22;11653;50.848;4.584;2023-04-24T08:28:57;12.30;99.90
22974;DHT22;11653;50.848;4.584;2023-04-24T08:31:22;12.10;99.90
22974;DHT22;11653;50.848;4.584;2023-04-24T08:33:50;11.90;99.90
22974;DHT22;11653;50.848;4.584;2023-04-24T08:36:16;12.00;99.90
22974;DHT22;11653;50.848;4.584;2023-04-24T08:38:42;12.60;99.90
22974;DHT22;11653;50.848;4.584;2023-04-24T08:41:09;12.90;99.90
22974;DHT22;11653;50.848;4.584;2023-04-24T08:43:35;12.90;99.90
22974;DHT22;11653;50.848;4.584;2023-04-24T08:46:04;13.50;99.90
22974;DHT22;11653;50.848;4.584;2023-04-24T08:48:32;14.10;99.90
22974;DHT22;11653;50.848;4.584;2023-04-24T08:50:58;14.50;99.90
22974;DHT22;11653;50.848;4.584;2023-04-24T08:53:25;14.80;99.90
22974;DHT22;11653;50.848;4.584;2023-04-24T08:55:51;15.20;99.90
22974;DHT22;11653;50.848;4.584;2023-04-24T08:58:19;14.80;99.90
22974;DHT22;11653;50.848;4.584;2023-04-24T09:00:45;13.70;99.90
22974;DHT22;11653;50.848;4.584;2023-04-24T09:03:16;13.10;99.90
22974;DHT22;11653;50.848;4.584;2023-04-24T09:05:43;13.00;99.90
22974;DHT22;11653;50.848;4.584;2023-04-24T09:08:13;12.90;99.90
22974;DHT22;11653;50.848;4.584;2023-04-24T09:10:39;12.80;99.90
22974;DHT22;11653;50.848;4.584;2023-04-24T09:13:05;12.80;99.90
22974;DHT22;11653;50.848;4.584;2023-04-24T09:15:31;13.10;99.90
22974;DHT22;11653;50.848;4.584;2023-04-24T09:17:57;13.90;99.90
22974;DHT22;11653;50.848;4.584;2023-04-24T09:20:23;15.10;99.90
22974;DHT22;11653;50.848;4.584;2023-04-24T09:22:54;15.40;99.90
22974;DHT22;11653;50.848;4.584;2023-04-24T09:25:20;15.90;99.90
22974;DHT22;11653;50.848;4.584;2023-04-24T09:27:46;15.80;99.90
22974;DHT22;11653;50.848;4.584;2023-04-24T09:30:13;15.80;99.90
22974;DHT22;11653;50.848;4.584;2023-04-24T09:32:39;16.10;99.90
22974;DHT22;11653;50.848;4.584;2023-04-24T09:37:35;15.80;99.90
22974;DHT22;11653;50.848;4.584;2023-04-24T09:40:18;15.10;99.90
22974;DHT22;11653;50.848;4.584;2023-04-24T09:42:54;14.40;99.90
22974;DHT22;11653;50.848;4.584;2023-04-24T09:45:21;14.10;99.90
22974;DHT22;11653;50.848;4.584;2023-04-24T09:47:51;14.30;99.90
22974;DHT22;11653;50.848;4.584;2023-04-24T09:50:19;14.20;99.90
22974;DHT22;11653;50.848;4.584;2023-04-24T09:52:46;13.80;99.90
22974;DHT22;11653;50.848;4.584;2023-04-24T09:55:18;13.70;99.90
22974;DHT22;11653;50.848;4.584;2023-04-24T09:57:55;13.50;99.90
22974;DHT22;11653;50.848;4.584;2023-04-24T10:00:26;13.40;99.90
22974;DHT22;11653;50.848;4.584;2023-04-24T10:02:57;13.30;99.90
22974;DHT22;11653;50.848;4.584;2023-04-24T10:05:34;13.40;99.90
22974;DHT22;11653;50.848;4.584;2023-04-24T10:08:02;13.90;99.90
22974;DHT22;11653;50.848;4.584;2023-04-24T10:10:29;14.30;99.90
22974;DHT22;11653;50.848;4.584;2023-04-24T10:12:55;14.60;99.90
22974;DHT22;11653;50.848;4.584;2023-04-24T10:15:21;14.60;99.90
22974;DHT22;11653;50.848;4.584;2023-04-24T10:17:51;14.30;99.90
22974;DHT22;11653;50.848;4.584;2023-04-24T10:20:25;14.20;99.90
22974;DHT22;11653;50.848;4.584;2023-04-24T10:22:52;14.10;99.90
22974;DHT22;11653;50.848;4.584;2023-04-24T10:25:20;13.80;99.90
22974;DHT22;11653;50.848;4.584;2023-04-24T10:27:47;13.80;99.90
22974;DHT22;11653;50.848;4.584;2023-04-24T10:30:14;13.80;99.90
22974;DHT22;11653;50.848;4.584;2023-04-24T10:32:40;14.00;99.90
22974;DHT22;11653;50.848;4.584;2023-04-24T10:35:10;14.50;99.90
22974;DHT22;11653;50.848;4.584;2023-04-24T10:37:40;14.70;99.90
22974;DHT22;11653;50.848;4.584;2023-04-24T10:40:07;14.50;99.90
22974;DHT22;11653;50.848;4.584;2023-04-24T10:42:34;14.20;99.90
22974;DHT22;11653;50.848;4.584;2023-04-24T10:45:05;13.90;99.90
22974;DHT22;11653;50.848;4.584;2023-04-24T10:47:40;13.30;99.90
22974;DHT22;11653;50.848;4.584;2023-04-24T10:50:15;13.00;99.90
22974;DHT22;11653;50.848;4.584;2023-04-24T10:52:48;13.40;99.90
22974;DHT22;11653;50.848;4.584;2023-04-24T10:55:29;14.60;99.90
22974;DHT22;11653;50.848;4.584;2023-04-24T10:58:03;15.80;99.90
22974;DHT22;11653;50.848;4.584;2023-04-24T11:00:30;16.80;99.90
22974;DHT22;11653;50.848;4.584;2023-04-24T11:02:56;16.90;99.90
22974;DHT22;11653;50.848;4.584;2023-04-24T11:05:23;16.70;99.90
22974;DHT22;11653;50.848;4.584;2023-04-24T11:08:12;16.30;99.90
22974;DHT22;11653;50.848;4.584;2023-04-24T11:10:39;15.90;99.90
22974;DHT22;11653;50.848;4.584;2023-04-24T11:13:06;15.60;99.90
22974;DHT22;11653;50.848;4.584;2023-04-24T11:15:31;15.30;99.90
22974;DHT22;11653;50.848;4.584;2023-04-24T11:17:59;15.00;99.90
22974;DHT22;11653;50.848;4.584;2023-04-24T11:20:25;14.70;99.90
22974;DHT22;11653;50.848;4.584;2023-04-24T11:22:54;14.60;99.90
22974;DHT22;11653;50.848;4.584;2023-04-24T11:25:21;14.10;99.90
22974;DHT22;11653;50.848;4.584;2023-04-24T11:27:48;13.80;99.90
22974;DHT22;11653;50.848;4.584;2023-04-24T11:30:19;13.50;99.90
22974;DHT22;11653;50.848;4.584;2023-04-24T11:32:48;13.40;99.90
22974;DHT22;11653;50.848;4.584;2023-04-24T11:35:22;13.30;99.90
22974;DHT22;11653;50.848;4.584;2023-04-24T11:37:53;13.20;99.90
22974;DHT22;11653;50.848;4.584;2023-04-24T11:40:21;13.30;99.90
22974;DHT22;11653;50.848;4.584;2023-04-24T11:42:50;13.40;99.90
22974;DHT22;11653;50.848;4.584;2023-04-24T11:45:23;13.60;99.90
22974;DHT22;11653;50.848;4.584;2023-04-24T11:47:49;13.90;99.90
22974;DHT22;11653;50.848;4.584;2023-04-24T11:50:21;14.10;99.90
22974;DHT22;11653;50.848;4.584;2023-04-24T11:52:48;14.70;99.90
22974;DHT22;11653;50.848;4.584;2023-04-24T11:57:44;15.10;99.90
22974;DHT22;11653;50.848;4.584;2023-04-24T12:00:22;14.80;99.90
22974;DHT22;11653;50.848;4.584;2023-04-24T12:02:48;15.00;99.90
22974;DHT22;11653;50.848;4.584;2023-04-24T12:05:27;15.60;99.90
22974;DHT22;11653;50.848;4.584;2023-04-24T12:07:53;16.10;99.90
22974;DHT22;11653;50.848;4.584;2023-04-24T12:10:24;16.10;99.90
22974;DHT22;11653;50.848;4.584;2023-04-24T12:12:50;15.90;99.90
22974;DHT22;11653;50.848;4.584;2023-04-24T12:15:18;15.40;99.90
22974;DHT22;11653;50.848;4.584;2023-04-24T12:17:45;14.70;99.90
22974;DHT22;11653;50.848;4.584;2023-04-24T12:20:11;14.40;99.90
22974;DHT22;11653;50.848;4.584;2023-04-24T12:22:55;14.50;99.90
22974;DHT22;11653;50.848;4.584;2023-04-24T12:25:23;14.50;99.90
22974;DHT22;11653;50.848;4.584;2023-04-24T12:27:54;14.30;99.90
22974;DHT22;11653;50.848;4.584;2023-04-24T12:30:26;14.30;99.90
22974;DHT22;11653;50.848;4.584;2023-04-24T12:32:52;14.40;99.90
22974;DHT22;11653;50.848;4.584;2023-04-24T12:35:22;14.50;99.90
22974;DHT22;11653;50.848;4.584;2023-04-24T12:37:48;15.00;99.90
22974;DHT22;11653;50.848;4.584;2023-04-24T12:40:14;15.40;99.90
22974;DHT22;11653;50.848;4.584;2023-04-24T12:42:48;15.40;99.90
22974;DHT22;11653;50.848;4.584;2023-04-24T12:45:15;15.40;99.90
22974;DHT22;11653;50.848;4.584;2023-04-24T12:47:43;15.30;99.90
22974;DHT22;11653;50.848;4.584;2023-04-24T12:50:13;15.20;99.90
22974;DHT22;11653;50.848;4.584;2023-04-24T12:52:40;15.20;99.90
22974;DHT22;11653;50.848;4.584;2023-04-24T12:55:06;15.40;99.90
22974;DHT22;11653;50.848;4.584;2023-04-24T12:57:38;15.60;99.90
22974;DHT22;11653;50.848;4.584;2023-04-24T13:00:06;15.90;99.90
22974;DHT22;11653;50.848;4.584;2023-04-24T13:02:32;15.80;99.90
22974;DHT22;11653;50.848;4.584;2023-04-24T13:04:59;15.90;99.90
22974;DHT22;11653;50.848;4.584;2023-04-24T13:07:26;16.00;99.90
22974;DHT22;11653;50.848;4.584;2023-04-24T13:09:54;16.10;99.90
22974;DHT22;11653;50.848;4.584;2023-04-24T13:12:20;16.10;99.90
22974;DHT22;11653;50.848;4.584;2023-04-24T13:14:45;16.20;99.90
22974;DHT22;11653;50.848;4.584;2023-04-24T13:17:11;16.20;99.90
22974;DHT22;11653;50.848;4.584;2023-04-24T13:19:42;15.90;99.90
22974;DHT22;11653;50.848;4.584;2023-04-24T13:22:12;15.70;99.90
22974;DHT22;11653;50.848;4.584;2023-04-24T13:24:38;15.50;99.90
22974;DHT22;11653;50.848;4.584;2023-04-24T13:27:06;15.40;99.90
22974;DHT22;11653;50.848;4.584;2023-04-24T13:29:32;15.40;99.90
22974;DHT22;11653;50.848;4.584;2023-04-24T13:31:58;15.20;99.90
22974;DHT22;11653;50.848;4.584;2023-04-24T13:34:24;15.10;99.90
22974;DHT22;11653;50.848;4.584;2023-04-24T13:36:52;14.90;99.90
22974;DHT22;11653;50.848;4.584;2023-04-24T13:39:18;15.00;99.90
22974;DHT22;11653;50.848;4.584;2023-04-24T13:41:44;14.90;99.90
22974;DHT22;11653;50.848;4.584;2023-04-24T13:44:10;14.80;99.90
22974;DHT22;11653;50.848;4.584;2023-04-24T13:46:36;14.70;99.90
22974;DHT22;11653;50.848;4.584;2023-04-24T13:49:02;14.50;99.90
22974;DHT22;11653;50.848;4.584;2023-04-24T13:51:29;14.50;99.90
22974;DHT22;11653;50.848;4.584;2023-04-24T13:53:55;14.80;99.90
22974;DHT22;11653;50.848;4.584;2023-04-24T13:56:22;15.00;99.90
22974;DHT22;11653;50.848;4.584;2023-04-24T13:58:48;15.20;99.90
22974;DHT22;11653;50.848;4.584;2023-04-24T14:01:14;15.30;99.90
22974;DHT22;11653;50.848;4.584;2023-04-24T14:03:41;15.40;99.90
22974;DHT22;11653;50.848;4.584;2023-04-24T14:06:07;15.30;99.90
22974;DHT22;11653;50.848;4.584;2023-04-24T14:08:32;15.40;99.90
22974;DHT22;11653;50.848;4.584;2023-04-24T14:10:58;15.60;99.90
22974;DHT22;11653;50.848;4.584;2023-04-24T14:13:24;15.50;99.90
22974;DHT22;11653;50.848;4.584;2023-04-24T14:15:51;15.50;99.90
22974;DHT22;11653;50.848;4.584;2023-04-24T14:18:18;15.50;99.90
22974;DHT22;11653;50.848;4.584;2023-04-24T14:20:44;15.40;99.90
22974;DHT22;11653;50.848;4.584;2023-04-24T14:23:09;15.30;99.90
22974;DHT22;11653;50.848;4.584;2023-04-24T14:25:35;15.20;99.90
22974;DHT22;11653;50.848;4.584;2023-04-24T14:28:01;15.20;99.90
22974;DHT22;11653;50.848;4.584;2023-04-24T14:30:26;15.20;99.90
22974;DHT22;11653;50.848;4.584;2023-04-24T14:32:52;15.30;99.90
22974;DHT22;11653;50.848;4.584;2023-04-24T14:35:19;15.50;99.90
22974;DHT22;11653;50.848;4.584;2023-04-24T14:37:45;15.60;99.90
22974;DHT22;11653;50.848;4.584;2023-04-24T14:40:11;15.50;99.90
22974;DHT22;11653;50.848;4.584;2023-04-24T14:42:36;15.50;99.90
22974;DHT22;11653;50.848;4.584;2023-04-24T14:45:02;15.40;99.90
22974;DHT22;11653;50.848;4.584;2023-04-24T14:47:28;15.30;99.90
22974;DHT22;11653;50.848;4.584;2023-04-24T14:49:54;15.10;99.90
22974;DHT22;11653;50.848;4.584;2023-04-24T14:52:21;14.80;99.90
22974;DHT22;11653;50.848;4.584;2023-04-24T14:54:46;14.60;99.90
22974;DHT22;11653;50.848;4.584;2023-04-24T14:57:12;14.60;99.90
22974;DHT22;11653;50.848;4.584;2023-04-24T14:59:38;14.60;99.90
22974;DHT22;11653;50.848;4.584;2023-04-24T15:02:04;14.50;99.90
22974;DHT22;11653;50.848;4.584;2023-04-24T15:04:29;14.40;99.90
22974;DHT22;11653;50.848;4.584;2023-04-24T15:06:56;14.40;99.90
22974;DHT22;11653;50.848;4.584;2023-04-24T15:09:23;14.40;99.90
22974;DHT22;11653;50.848;4.584;2023-04-24T15:11:49;14.40;99.90
22974;DHT22;11653;50.848;4.584;2023-04-24T15:14:16;14.40;99.90
22974;DHT22;11653;50.848;4.584;2023-04-24T15:16:42;14.40;99.90
22974;DHT22;11653;50.848;4.584;2023-04-24T15:19:08;14.40;99.90
22974;DHT22;11653;50.848;4.584;2023-04-24T15:21:35;14.40;99.90
22974;DHT22;11653;50.848;4.584;2023-04-24T15:24:01;14.30;99.90
22974;DHT22;11653;50.848;4.584;2023-04-24T15:26:26;14.50;99.90
22974;DHT22;11653;50.848;4.584;2023-04-24T15:28:52;14.50;99.90
22974;DHT22;11653;50.848;4.584;2023-04-24T15:31:18;14.50;99.90
22974;DHT22;11653;50.848;4.584;2023-04-24T15:33:44;14.40;99.90
22974;DHT22;11653;50.848;4.584;2023-04-24T15:36:10;14.30;99.90
22974;DHT22;11653;50.848;4.584;2023-04-24T15:38:36;14.20;99.90